Time;durP1;ratioP1;P1;durP2;ratioP2;P2;SDS_P1;SDS_P2;PMS_P1;PMS_P2;Temp;Humidity;BMP_temperature;BMP_pressure;BME280_temperature;BME280_humidity;BME280_pressure;Samples;Min_cycle;Max_cycle;Signal;HPM_P1;HPM_P2
2023/10/18 00:00:58;;;;;;;8.60;5.57;;;;;;;;;;5068076;28;20058;-76
2023/10/18 00:03:31;;;;;;;8.75;6.43;;;;;;;;;;5062145;28;20111;-75
2023/10/18 00:05:57;;;;;;;7.75;5.97;;;;;;;;;;5069392;28;20028;-75
2023/10/18 00:08:23;;;;;;;8.20;6.03;;;;;;;;;;5068329;28;20059;-75
2023/10/18 00:10:50;;;;;;;11.38;5.75;;;;;;;;;;5051495;28;20452;-78
2023/10/18 00:13:16;;;;;;;8.77;6.05;;;;;;;;;;5073079;28;20107;-76
2023/10/18 00:15:41;;;;;;;7.45;5.38;;;;;;;;;;5050618;28;21616;-75
2023/10/18 00:18:07;;;;;;;9.43;6.05;;;;;;;;;;5069308;28;20054;-75
2023/10/18 00:20:32;;;;;;;9.73;5.78;;;;;;;;;;5054499;28;20032;-74
2023/10/18 00:22:57;;;;;;;10.40;6.28;;;;;;;;;;5047921;28;20039;-77
2023/10/18 00:25:23;;;;;;;9.68;5.90;;;;;;;;;;5070016;28;20082;-77
2023/10/18 00:27:49;;;;;;;7.68;5.68;;;;;;;;;;5072479;28;20399;-77
2023/10/18 00:30:18;;;;;;;8.45;5.55;;;;;;;;;;5071670;28;20031;-77
2023/10/18 00:32:44;;;;;;;8.02;5.95;;;;;;;;;;5049859;28;20033;-77
2023/10/18 00:35:18;;;;;;;8.05;5.75;;;;;;;;;;5048472;28;20029;-77
2023/10/18 00:37:44;;;;;;;11.80;5.95;;;;;;;;;;5071582;28;20020;-77
2023/10/18 00:42:52;;;;;;;9.65;5.93;;;;;;;;;;5068970;28;20577;-77
2023/10/18 00:45:19;;;;;;;9.50;6.00;;;;;;;;;;5062441;28;20021;-77
2023/10/18 00:47:45;;;;;;;10.70;6.10;;;;;;;;;;5056891;28;20594;-83
2023/10/18 00:50:11;;;;;;;8.60;6.18;;;;;;;;;;5067017;28;20016;-84
2023/10/18 00:52:39;;;;;;;10.18;6.43;;;;;;;;;;5064014;28;20028;-83
2023/10/18 00:55:05;;;;;;;8.25;5.70;;;;;;;;;;5068412;28;20037;-84
2023/10/18 00:57:35;;;;;;;9.23;6.22;;;;;;;;;;5050545;28;20016;-84
2023/10/18 01:00:09;;;;;;;7.75;5.88;;;;;;;;;;5049983;28;20422;-83
2023/10/18 01:02:39;;;;;;;8.27;5.50;;;;;;;;;;5066945;28;20221;-84
2023/10/18 01:05:09;;;;;;;9.13;5.68;;;;;;;;;;5069310;28;20049;-83
2023/10/18 01:07:35;;;;;;;8.98;5.63;;;;;;;;;;5048517;28;20123;-84
2023/10/18 01:10:06;;;;;;;8.75;5.82;;;;;;;;;;5051570;28;20162;-80
2023/10/18 01:12:34;;;;;;;8.85;5.88;;;;;;;;;;5066941;28;20036;-84
2023/10/18 01:14:59;;;;;;;11.80;6.82;;;;;;;;;;5071881;28;20029;-84
2023/10/18 01:17:25;;;;;;;8.77;6.15;;;;;;;;;;5067226;28;20495;-81
2023/10/18 01:19:53;;;;;;;10.95;6.25;;;;;;;;;;5061743;28;20047;-81
2023/10/18 01:22:19;;;;;;;10.40;6.22;;;;;;;;;;5049618;28;20028;-83
2023/10/18 01:24:45;;;;;;;8.57;6.05;;;;;;;;;;5063628;28;20556;-84
2023/10/18 01:27:13;;;;;;;9.65;6.05;;;;;;;;;;5061173;28;20123;-83
2023/10/18 01:29:39;;;;;;;8.43;5.65;;;;;;;;;;5062918;28;20024;-84
2023/10/18 01:32:22;;;;;;;8.05;5.35;;;;;;;;;;5069476;28;20040;-78
2023/10/18 01:34:48;;;;;;;7.82;5.40;;;;;;;;;;5051109;28;20043;-78
2023/10/18 01:37:14;;;;;;;7.82;5.80;;;;;;;;;;5049039;28;20024;-78
2023/10/18 01:39:39;;;;;;;7.80;5.70;;;;;;;;;;5067913;28;20033;-77
2023/10/18 01:42:06;;;;;;;7.95;5.78;;;;;;;;;;5070490;28;20111;-78
2023/10/18 01:44:33;;;;;;;7.88;5.60;;;;;;;;;;5068584;28;20400;-78
2023/10/18 01:47:08;;;;;;;8.90;6.13;;;;;;;;;;5049170;28;20037;-78
2023/10/18 01:49:43;;;;;;;10.57;5.72;;;;;;;;;;5065617;28;20021;-78
2023/10/18 01:52:12;;;;;;;10.30;6.05;;;;;;;;;;5068597;28;20487;-77
2023/10/18 01:54:38;;;;;;;8.60;5.75;;;;;;;;;;5059628;28;20503;-78
2023/10/18 01:57:06;;;;;;;9.05;6.00;;;;;;;;;;5060828;28;20494;-78
2023/10/18 01:59:34;;;;;;;7.78;5.70;;;;;;;;;;5064148;28;20142;-77
2023/10/18 02:01:59;;;;;;;9.25;6.22;;;;;;;;;;5049205;28;20127;-77
2023/10/18 02:04:25;;;;;;;9.00;5.85;;;;;;;;;;5066531;28;20103;-77
2023/10/18 02:07:00;;;;;;;10.00;6.05;;;;;;;;;;5062733;28;20044;-78
2023/10/18 02:09:49;;;;;;;9.60;5.88;;;;;;;;;;5066077;28;20460;-78
2023/10/18 02:12:27;;;;;;;9.60;6.07;;;;;;;;;;5062990;28;20150;-78
2023/10/18 02:14:55;;;;;;;9.55;6.10;;;;;;;;;;5045777;28;20047;-78
2023/10/18 02:17:21;;;;;;;8.07;5.72;;;;;;;;;;5060814;28;20707;-78
2023/10/18 02:19:47;;;;;;;9.52;5.65;;;;;;;;;;5064834;28;20032;-78
2023/10/18 02:22:13;;;;;;;9.13;6.10;;;;;;;;;;5064288;28;20036;-77
2023/10/18 02:24:38;;;;;;;10.48;6.05;;;;;;;;;;5072801;28;20165;-77
2023/10/18 02:27:08;;;;;;;8.70;5.80;;;;;;;;;;5062884;28;20032;-77
2023/10/18 02:29:34;;;;;;;9.10;6.22;;;;;;;;;;5062816;28;20032;-78
2023/10/18 02:32:04;;;;;;;8.85;5.88;;;;;;;;;;5063718;28;20373;-76
2023/10/18 02:34:33;;;;;;;8.30;5.90;;;;;;;;;;5064070;28;20051;-77
2023/10/18 02:37:00;;;;;;;9.25;5.80;;;;;;;;;;5068189;28;20029;-77
2023/10/18 02:39:33;;;;;;;8.95;5.88;;;;;;;;;;5065242;28;20603;-77
2023/10/18 02:41:58;;;;;;;8.95;5.65;;;;;;;;;;5051654;28;20114;-77
2023/10/18 02:44:24;;;;;;;9.60;5.88;;;;;;;;;;5052653;28;20500;-77
2023/10/18 02:47:16;;;;;;;8.15;5.15;;;;;;;;;;5047826;28;20036;-77
2023/10/18 02:49:51;;;;;;;8.57;5.40;;;;;;;;;;5047265;28;20535;-77
2023/10/18 02:52:17;;;;;;;9.65;5.78;;;;;;;;;;5068345;28;20103;-77
2023/10/18 02:54:42;;;;;;;7.53;5.38;;;;;;;;;;5067631;28;20111;-77
2023/10/18 02:57:10;;;;;;;7.70;5.28;;;;;;;;;;5066391;28;20036;-77
2023/10/18 02:59:35;;;;;;;8.45;5.70;;;;;;;;;;5063269;28;20119;-77
2023/10/18 03:02:02;;;;;;;8.35;6.30;;;;;;;;;;5069875;28;20111;-77
2023/10/18 03:04:29;;;;;;;7.80;5.63;;;;;;;;;;5050160;28;20082;-77
2023/10/18 03:06:55;;;;;;;8.10;5.20;;;;;;;;;;5067783;28;20456;-77
2023/10/18 03:09:28;;;;;;;8.23;5.72;;;;;;;;;;5061016;28;20032;-77
2023/10/18 03:11:57;;;;;;;10.50;5.50;;;;;;;;;;5058763;28;20024;-77
2023/10/18 03:14:26;;;;;;;7.68;5.25;;;;;;;;;;5060110;28;20113;-77
2023/10/18 03:16:55;;;;;;;9.15;5.38;;;;;;;;;;5064241;28;20028;-77
2023/10/18 03:19:22;;;;;;;8.30;5.57;;;;;;;;;;5043999;28;20071;-77
2023/10/18 03:21:48;;;;;;;8.20;5.70;;;;;;;;;;5047790;28;20040;-77
2023/10/18 03:24:14;;;;;;;9.48;5.95;;;;;;;;;;5045759;28;20050;-77
2023/10/18 03:26:40;;;;;;;8.55;5.63;;;;;;;;;;5066252;28;20037;-77
2023/10/18 03:29:11;;;;;;;8.32;5.50;;;;;;;;;;5056011;28;20031;-78
2023/10/18 03:31:41;;;;;;;6.75;5.03;;;;;;;;;;5067873;28;20499;-77
2023/10/18 03:34:16;;;;;;;9.23;5.30;;;;;;;;;;5071227;28;20579;-77
2023/10/18 03:36:54;;;;;;;8.50;5.85;;;;;;;;;;5033328;28;20472;-77
2023/10/18 03:39:25;;;;;;;9.02;5.63;;;;;;;;;;5069242;28;20089;-77
2023/10/18 03:41:52;;;;;;;9.80;5.38;;;;;;;;;;5068222;28;20369;-77
2023/10/18 03:44:22;;;;;;;8.82;5.68;;;;;;;;;;5069800;28;20028;-77
2023/10/18 03:46:48;;;;;;;8.73;5.53;;;;;;;;;;5048700;28;20536;-77
2023/10/18 03:51:56;;;;;;;7.63;5.30;;;;;;;;;;5068948;28;20070;-77
2023/10/18 03:54:43;;;;;;;8.52;5.60;;;;;;;;;;5068183;28;20021;-77
2023/10/18 03:57:08;;;;;;;9.85;5.40;;;;;;;;;;5067684;28;20111;-77
2023/10/18 03:59:40;;;;;;;9.75;5.50;;;;;;;;;;5048468;28;20111;-77
2023/10/18 04:02:08;;;;;;;9.27;5.68;;;;;;;;;;5068628;28;20432;-77
2023/10/18 04:04:35;;;;;;;9.48;6.07;;;;;;;;;;5067560;28;20484;-76
2023/10/18 04:07:17;;;;;;;8.77;5.40;;;;;;;;;;5067725;28;20025;-77
2023/10/18 04:09:53;;;;;;;9.45;5.50;;;;;;;;;;5073514;28;20484;-77
2023/10/18 04:12:19;;;;;;;9.90;5.78;;;;;;;;;;5068220;28;20530;-77
2023/10/18 04:15:00;;;;;;;9.65;5.70;;;;;;;;;;5071186;28;20474;-78
2023/10/18 04:17:36;;;;;;;9.27;5.40;;;;;;;;;;5045288;28;20449;-75
2023/10/18 04:20:22;;;;;;;8.93;5.60;;;;;;;;;;5063050;28;20039;-76
2023/10/18 04:22:48;;;;;;;9.05;6.07;;;;;;;;;;5045860;28;20028;-75
2023/10/18 04:25:25;;;;;;;8.98;5.63;;;;;;;;;;5061577;28;20028;-76
2023/10/18 04:27:52;;;;;;;7.90;5.63;;;;;;;;;;5064296;28;20058;-76
2023/10/18 04:30:22;;;;;;;10.95;6.20;;;;;;;;;;5061779;28;20055;-82
2023/10/18 04:32:59;;;;;;;8.20;5.65;;;;;;;;;;5062483;28;20032;-83
2023/10/18 04:35:26;;;;;;;10.80;6.10;;;;;;;;;;5063643;28;20055;-80
2023/10/18 04:37:53;;;;;;;9.95;5.85;;;;;;;;;;5062213;28;20549;-83
2023/10/18 04:40:28;;;;;;;9.13;6.20;;;;;;;;;;5063501;28;20357;-84
2023/10/18 04:42:57;;;;;;;10.57;5.70;;;;;;;;;;5063408;28;21030;-83
2023/10/18 04:45:23;;;;;;;9.90;6.13;;;;;;;;;;5061987;28;20037;-83
2023/10/18 04:47:58;;;;;;;8.85;5.63;;;;;;;;;;5066432;28;20058;-83
2023/10/18 04:50:29;;;;;;;9.95;6.03;;;;;;;;;;5046391;28;20432;-83
2023/10/18 04:52:58;;;;;;;10.25;6.40;;;;;;;;;;5070802;28;20043;-77
2023/10/18 04:55:25;;;;;;;9.48;6.03;;;;;;;;;;5065908;28;20098;-75
2023/10/18 04:57:53;;;;;;;8.70;6.05;;;;;;;;;;5065848;28;20036;-75
2023/10/18 05:00:25;;;;;;;9.15;6.20;;;;;;;;;;5051944;28;20549;-75
2023/10/18 05:02:52;;;;;;;10.18;5.70;;;;;;;;;;5062857;28;20055;-75
2023/10/18 05:05:18;;;;;;;9.10;6.13;;;;;;;;;;5061628;28;20078;-77
2023/10/18 05:07:47;;;;;;;11.63;5.97;;;;;;;;;;5048548;28;20040;-76
2023/10/18 05:10:16;;;;;;;9.23;5.80;;;;;;;;;;5066808;28;20032;-74
2023/10/18 05:13:19;;;;;;;11.35;5.75;;;;;;;;;;5065076;28;20044;-75
2023/10/18 05:15:33;;;;;;;8.90;6.18;;;;;;;;;;5060263;28;20404;-76
2023/10/18 05:18:05;;;;;;;8.57;6.00;;;;;;;;;;5068459;28;20025;-74
2023/10/18 05:21:20;;;;;;;10.15;6.00;;;;;;;;;;5067855;28;20056;-75
2023/10/18 05:23:25;;;;;;;7.90;5.35;;;;;;;;;;5049650;28;20045;-74
2023/10/18 05:28:48;;;;;;;7.60;5.70;;;;;;;;;;5063361;28;20032;-74
2023/10/18 05:41:51;;;;;;;9.57;5.65;;;;;;;;;;5062352;28;20028;-75
2023/10/18 05:44:17;;;;;;;11.15;5.97;;;;;;;;;;5046086;28;20488;-75
2023/10/18 05:46:46;;;;;;;9.30;6.22;;;;;;;;;;5065956;28;20082;-74
2023/10/18 05:49:23;;;;;;;9.95;6.30;;;;;;;;;;5066217;28;20052;-74
2023/10/18 05:51:52;;;;;;;9.40;6.28;;;;;;;;;;5047597;28;20062;-74
2023/10/18 05:54:21;;;;;;;10.90;6.25;;;;;;;;;;5067523;28;20428;-84
2023/10/18 05:56:51;;;;;;;11.20;6.57;;;;;;;;;;5064820;28;20034;-84
2023/10/18 06:01:58;;;;;;;9.90;6.00;;;;;;;;;;5062849;28;20039;-83
2023/10/18 06:04:37;;;;;;;8.88;5.80;;;;;;;;;;5045174;28;20031;-84
2023/10/18 06:07:10;;;;;;;8.48;5.90;;;;;;;;;;5060095;28;20054;-83
2023/10/18 06:09:54;;;;;;;8.82;5.60;;;;;;;;;;5063103;28;20025;-83
2023/10/18 06:12:23;;;;;;;9.77;5.57;;;;;;;;;;5062088;28;20032;-77
2023/10/18 06:14:52;;;;;;;9.85;5.65;;;;;;;;;;5046682;28;20043;-77
2023/10/18 06:17:26;;;;;;;8.85;5.80;;;;;;;;;;5061613;28;20065;-78
2023/10/18 06:19:52;;;;;;;8.43;5.32;;;;;;;;;;5060494;28;20032;-77
2023/10/18 06:22:29;;;;;;;9.13;6.00;;;;;;;;;;5067482;28;20450;-77
2023/10/18 06:24:57;;;;;;;10.68;5.70;;;;;;;;;;5059442;28;20020;-78
2023/10/18 06:27:23;;;;;;;9.80;6.20;;;;;;;;;;5044912;28;20017;-77
2023/10/18 06:29:55;;;;;;;9.55;5.72;;;;;;;;;;5045437;28;20119;-77
2023/10/18 06:32:25;;;;;;;9.60;5.63;;;;;;;;;;5062156;28;20024;-77
2023/10/18 06:34:56;;;;;;;8.52;5.60;;;;;;;;;;5046343;28;20025;-77
2023/10/18 06:37:31;;;;;;;10.93;6.43;;;;;;;;;;5063864;28;20510;-77
2023/10/18 06:40:00;;;;;;;8.73;5.68;;;;;;;;;;5064161;28;20528;-78
2023/10/18 06:42:28;;;;;;;8.32;5.82;;;;;;;;;;5044303;28;20039;-77
2023/10/18 06:44:55;;;;;;;12.55;5.95;;;;;;;;;;5063748;28;20424;-75
2023/10/18 06:47:30;;;;;;;9.40;5.63;;;;;;;;;;5047722;28;20024;-77
2023/10/18 06:49:58;;;;;;;10.60;5.68;;;;;;;;;;5062432;28;20531;-75
2023/10/18 06:52:28;;;;;;;8.02;5.53;;;;;;;;;;5047245;28;20109;-76
2023/10/18 06:54:55;;;;;;;11.43;6.28;;;;;;;;;;5061155;28;20368;-75
2023/10/18 06:57:27;;;;;;;8.77;5.65;;;;;;;;;;5043781;28;20051;-74
2023/10/18 06:59:54;;;;;;;10.73;5.95;;;;;;;;;;5056916;28;21560;-75
2023/10/18 07:02:26;;;;;;;8.10;5.63;;;;;;;;;;5042122;28;20244;-76
2023/10/18 07:04:52;;;;;;;9.60;5.35;;;;;;;;;;5056488;28;20017;-74
2023/10/18 07:07:20;;;;;;;10.13;5.78;;;;;;;;;;5057613;28;20500;-74
2023/10/18 07:09:49;;;;;;;10.20;5.88;;;;;;;;;;5059971;28;20032;-74
2023/10/18 07:12:17;;;;;;;8.60;5.55;;;;;;;;;;5060406;28;20053;-74
2023/10/18 07:14:43;;;;;;;8.68;5.82;;;;;;;;;;5060607;28;20373;-75
2023/10/18 07:17:11;;;;;;;8.77;5.88;;;;;;;;;;5067103;28;20035;-74
2023/10/18 07:19:49;;;;;;;7.90;5.18;;;;;;;;;;5063873;28;20102;-75
2023/10/18 07:22:19;;;;;;;7.90;5.28;;;;;;;;;;5062656;28;20392;-78
2023/10/18 07:24:54;;;;;;;10.05;5.32;;;;;;;;;;5029552;28;20028;-77
2023/10/18 07:27:29;;;;;;;9.43;5.65;;;;;;;;;;5030348;28;20029;-77
2023/10/18 07:29:58;;;;;;;8.65;5.32;;;;;;;;;;5059103;28;20103;-78
2023/10/18 07:32:24;;;;;;;9.57;5.43;;;;;;;;;;5062509;28;20031;-77
2023/10/18 07:34:49;;;;;;;9.05;5.80;;;;;;;;;;5051709;28;20021;-77
2023/10/18 07:37:19;;;;;;;7.65;5.25;;;;;;;;;;5042880;28;20024;-77
2023/10/18 07:39:49;;;;;;;9.20;5.53;;;;;;;;;;5045546;28;20025;-77
2023/10/18 07:42:20;;;;;;;8.82;5.68;;;;;;;;;;5064479;28;20032;-76
2023/10/18 07:44:52;;;;;;;9.25;5.40;;;;;;;;;;5058862;28;20032;-77
2023/10/18 07:47:19;;;;;;;9.98;5.65;;;;;;;;;;5045833;28;20069;-77
2023/10/18 07:49:45;;;;;;;9.32;5.50;;;;;;;;;;5041468;28;20028;-77
2023/10/18 07:52:10;;;;;;;9.15;5.80;;;;;;;;;;5057381;28;20036;-77
2023/10/18 07:54:37;;;;;;;9.55;5.68;;;;;;;;;;5056832;28;20032;-78
2023/10/18 07:57:02;;;;;;;10.43;5.50;;;;;;;;;;5049561;28;20645;-77
2023/10/18 07:59:28;;;;;;;9.15;5.68;;;;;;;;;;5043253;28;20032;-76
2023/10/18 08:02:13;;;;;;;10.93;5.25;;;;;;;;;;5041925;28;20024;-77
2023/10/18 08:04:43;;;;;;;8.82;5.75;;;;;;;;;;5048211;28;20033;-78
2023/10/18 08:07:11;;;;;;;8.95;5.80;;;;;;;;;;5034198;28;20037;-77
2023/10/18 08:09:41;;;;;;;8.88;5.47;;;;;;;;;;5061888;28;20028;-77
2023/10/18 08:12:08;;;;;;;10.57;5.63;;;;;;;;;;5056670;28;20560;-77
2023/10/18 08:14:34;;;;;;;8.45;5.43;;;;;;;;;;5035685;28;20016;-78
2023/10/18 08:17:08;;;;;;;8.82;4.65;;;;;;;;;;5051180;28;20028;-78
2023/10/18 08:19:43;;;;;;;7.50;5.05;;;;;;;;;;5055997;28;20571;-77
2023/10/18 08:24:37;;;;;;;7.15;4.90;;;;;;;;;;5057504;28;20034;-78
2023/10/18 08:27:09;;;;;;;7.10;4.68;;;;;;;;;;5056539;28;20032;-77
2023/10/18 08:29:36;;;;;;;9.77;4.80;;;;;;;;;;5059470;28;20031;-77
2023/10/18 08:32:14;;;;;;;8.02;5.32;;;;;;;;;;5054143;28;20038;-77
2023/10/18 08:34:50;;;;;;;7.57;4.53;;;;;;;;;;5054379;28;20139;-78
2023/10/18 08:37:16;;;;;;;8.98;4.45;;;;;;;;;;5055618;28;20039;-77
2023/10/18 08:39:52;;;;;;;9.00;4.65;;;;;;;;;;5062009;28;20032;-77
2023/10/18 08:42:21;;;;;;;10.13;4.80;;;;;;;;;;5049192;28;20059;-76
2023/10/18 08:44:50;;;;;;;9.05;4.78;;;;;;;;;;5055748;28;20020;-75
2023/10/18 08:47:17;;;;;;;7.32;4.40;;;;;;;;;;5056590;28;20030;-74
2023/10/18 08:49:53;;;;;;;8.00;4.97;;;;;;;;;;5048019;28;20396;-77
2023/10/18 08:52:20;;;;;;;8.30;4.50;;;;;;;;;;5043445;28;20492;-77
2023/10/18 08:54:48;;;;;;;6.95;4.70;;;;;;;;;;5049721;28;20056;-78
2023/10/18 08:57:17;;;;;;;7.45;5.05;;;;;;;;;;5035923;28;20327;-78
2023/10/18 08:59:47;;;;;;;8.15;4.82;;;;;;;;;;5054780;28;20060;-77
2023/10/18 09:02:23;;;;;;;8.80;4.90;;;;;;;;;;5036840;28;20056;-78
2023/10/18 09:04:59;;;;;;;7.22;4.82;;;;;;;;;;5041071;28;20029;-78
2023/10/18 09:07:44;;;;;;;7.18;4.70;;;;;;;;;;5047797;28;20487;-78
2023/10/18 09:10:26;;;;;;;8.93;5.03;;;;;;;;;;5057163;28;20025;-78
2023/10/18 09:15:36;;;;;;;8.55;4.97;;;;;;;;;;5053977;28;20086;-78
2023/10/18 09:18:05;;;;;;;8.50;5.20;;;;;;;;;;5051695;28;20708;-78
2023/10/18 09:20:31;;;;;;;9.32;4.88;;;;;;;;;;5036685;28;20040;-78
2023/10/18 09:23:02;;;;;;;8.43;5.38;;;;;;;;;;5044498;28;20038;-78
2023/10/18 09:25:28;;;;;;;8.02;5.20;;;;;;;;;;5053586;28;20028;-78
2023/10/18 09:28:10;;;;;;;8.57;5.25;;;;;;;;;;5031691;28;20384;-78
2023/10/18 09:30:36;;;;;;;7.30;5.38;;;;;;;;;;5043968;28;20373;-78
2023/10/18 09:33:02;;;;;;;9.30;5.78;;;;;;;;;;5041322;28;20475;-78
2023/10/18 09:35:28;;;;;;;8.63;4.72;;;;;;;;;;5053328;28;20724;-78
2023/10/18 09:37:54;;;;;;;7.43;4.85;;;;;;;;;;5052983;28;20020;-78
2023/10/18 09:40:20;;;;;;;9.05;5.28;;;;;;;;;;5060444;28;20025;-78
2023/10/18 09:42:45;;;;;;;9.07;5.20;;;;;;;;;;5058945;28;20032;-78
2023/10/18 09:45:13;;;;;;;9.75;4.95;;;;;;;;;;5044427;28;20025;-78
2023/10/18 09:47:40;;;;;;;9.27;5.50;;;;;;;;;;5051971;28;21116;-78
2023/10/18 09:50:08;;;;;;;7.68;5.10;;;;;;;;;;5055955;28;20023;-78
2023/10/18 09:52:47;;;;;;;7.28;5.20;;;;;;;;;;5059464;28;20051;-78
2023/10/18 09:55:17;;;;;;;7.40;4.95;;;;;;;;;;5057916;28;20085;-78
2023/10/18 09:57:49;;;;;;;6.95;5.20;;;;;;;;;;5040139;28;20012;-78
2023/10/18 10:00:15;;;;;;;8.37;5.03;;;;;;;;;;5055941;28;20033;-78
2023/10/18 10:02:43;;;;;;;9.93;5.15;;;;;;;;;;5050041;28;20035;-78
2023/10/18 10:05:24;;;;;;;7.78;5.50;;;;;;;;;;5055282;28;20067;-78
2023/10/18 10:07:54;;;;;;;9.65;5.15;;;;;;;;;;5032285;28;20498;-78
2023/10/18 10:10:24;;;;;;;10.13;6.10;;;;;;;;;;5049264;28;20029;-78
2023/10/18 10:12:57;;;;;;;8.90;5.65;;;;;;;;;;5034740;28;20033;-85
2023/10/18 10:15:25;;;;;;;;;;;;;;;;;;5036943;28;20162;-83
2023/10/18 10:18:00;;;;;;;9.38;5.22;;;;;;;;;;5045796;28;19913;-86
2023/10/18 10:20:40;;;;;;;7.05;5.05;;;;;;;;;;5055458;28;20491;-86
2023/10/18 10:23:14;;;;;;;7.82;5.40;;;;;;;;;;5041804;28;20021;-82
2023/10/18 10:25:48;;;;;;;10.52;5.38;;;;;;;;;;5040842;28;20029;-86
2023/10/18 10:28:53;;;;;;;8.85;5.30;;;;;;;;;;5056927;28;20024;-80
2023/10/18 10:31:22;;;;;;;7.95;5.30;;;;;;;;;;5058673;28;20228;-84
2023/10/18 10:34:06;;;;;;;11.32;5.60;;;;;;;;;;5040811;28;20025;-85
2023/10/18 10:36:34;;;;;;;8.45;5.20;;;;;;;;;;5055546;28;20104;-86
2023/10/18 10:39:02;;;;;;;8.65;5.75;;;;;;;;;;5053174;28;20091;-82
2023/10/18 10:41:30;;;;;;;9.18;5.60;;;;;;;;;;5053879;28;20469;-84
2023/10/18 10:44:21;;;;;;;8.90;5.15;;;;;;;;;;5049430;28;20470;-81
2023/10/18 10:47:29;;;;;;;9.65;5.65;;;;;;;;;;5051777;28;20036;-85
2023/10/18 10:49:58;;;;;;;9.88;5.35;;;;;;;;;;5040005;28;20024;-86
2023/10/18 10:52:29;;;;;;;9.77;5.80;;;;;;;;;;5030786;28;20181;-83
2023/10/18 10:55:03;;;;;;;9.75;5.88;;;;;;;;;;5041528;28;20040;-85
2023/10/18 10:57:30;;;;;;;8.93;5.43;;;;;;;;;;5043344;28;20028;-83
2023/10/18 10:59:56;;;;;;;8.50;5.70;;;;;;;;;;5061073;28;20037;-86
2023/10/18 11:02:39;;;;;;;11.02;5.65;;;;;;;;;;5039490;28;20025;-82
2023/10/18 11:05:15;;;;;;;12.90;5.85;;;;;;;;;;5061602;28;20029;-85
2023/10/18 11:07:43;;;;;;;12.57;5.70;;;;;;;;;;5038980;28;20025;-85
2023/10/18 11:10:19;;;;;;;9.07;5.65;;;;;;;;;;5044687;28;20032;-87
2023/10/18 11:12:48;;;;;;;7.63;5.30;;;;;;;;;;5044235;28;20017;-87
2023/10/18 11:15:16;;;;;;;8.60;5.45;;;;;;;;;;5052979;28;20495;-86
2023/10/18 11:17:48;;;;;;;7.85;5.35;;;;;;;;;;5026442;28;20492;-83
2023/10/18 11:20:19;;;;;;;8.13;5.32;;;;;;;;;;5051712;28;20032;-80
2023/10/18 11:22:50;;;;;;;9.43;5.75;;;;;;;;;;5038421;28;20070;-78
2023/10/18 11:25:30;;;;;;;8.70;5.28;;;;;;;;;;5048907;28;20464;-79
2023/10/18 11:27:56;;;;;;;11.85;5.57;;;;;;;;;;5056598;28;20033;-78
2023/10/18 11:30:26;;;;;;;11.20;5.88;;;;;;;;;;5036595;28;20468;-79
2023/10/18 11:32:54;;;;;;;8.50;5.35;;;;;;;;;;5052953;28;20031;-82
2023/10/18 11:35:48;;;;;;;9.00;5.50;;;;;;;;;;5032968;28;20037;-87
2023/10/18 11:38:13;;;;;;;8.53;5.20;;;;;;;;;;5052468;28;20045;-87
2023/10/18 11:40:43;;;;;;;9.13;5.47;;;;;;;;;;5047832;28;20311;-83
2023/10/18 11:43:09;;;;;;;8.45;5.53;;;;;;;;;;5052910;28;20029;-79
2023/10/18 11:45:38;;;;;;;7.93;5.10;;;;;;;;;;5057895;28;20032;-85
2023/10/18 11:48:06;;;;;;;8.00;5.05;;;;;;;;;;5060898;28;20044;-87
2023/10/18 11:50:47;;;;;;;8.88;5.75;;;;;;;;;;5034196;28;20101;-82
2023/10/18 11:53:14;;;;;;;8.90;5.68;;;;;;;;;;5039787;28;20472;-85
2023/10/18 11:55:55;;;;;;;9.90;5.35;;;;;;;;;;5062147;28;20440;-86
2023/10/18 11:58:22;;;;;;;7.63;5.32;;;;;;;;;;5053570;28;20034;-83
2023/10/18 12:00:47;;;;;;;9.20;5.40;;;;;;;;;;5053583;28;20106;-83
2023/10/18 12:03:13;;;;;;;9.73;5.85;;;;;;;;;;5043429;28;20614;-85
2023/10/18 12:05:42;;;;;;;8.38;5.47;;;;;;;;;;5055712;28;20040;-78
2023/10/18 12:08:12;;;;;;;9.20;5.32;;;;;;;;;;5033892;28;20035;-82
2023/10/18 12:10:39;;;;;;;9.13;6.00;;;;;;;;;;4995207;28;20114;-84
2023/10/18 12:13:06;;;;;;;10.52;5.90;;;;;;;;;;5032546;28;20028;-84
2023/10/18 12:15:33;;;;;;;9.18;5.88;;;;;;;;;;5044633;28;20465;-83
2023/10/18 12:18:04;;;;;;;9.25;5.50;;;;;;;;;;5044301;28;20488;-81
2023/10/18 12:20:43;;;;;;;9.30;5.80;;;;;;;;;;5046457;28;20027;-80
2023/10/18 12:23:21;;;;;;;8.88;5.50;;;;;;;;;;5059175;28;20024;-84
2023/10/18 12:25:48;;;;;;;11.35;5.20;;;;;;;;;;5044831;28;20620;-86
2023/10/18 12:28:35;;;;;;;9.98;5.80;;;;;;;;;;5067344;28;20434;-88
2023/10/18 12:31:09;;;;;;;9.75;5.70;;;;;;;;;;5043815;28;20036;-87
2023/10/18 12:33:35;;;;;;;10.52;5.95;;;;;;;;;;5059491;28;20024;-87
2023/10/18 12:36:00;;;;;;;9.45;5.68;;;;;;;;;;5056531;28;20036;-86
2023/10/18 12:38:32;;;;;;;10.10;6.20;;;;;;;;;;5055966;28;20411;-80
2023/10/18 12:40:59;;;;;;;10.75;6.32;;;;;;;;;;5033086;28;20035;-79
2023/10/18 12:43:38;;;;;;;9.25;5.93;;;;;;;;;;5055265;28;20035;-77
2023/10/18 12:46:04;;;;;;;9.25;5.93;;;;;;;;;;5038880;28;20409;-79
2023/10/18 12:48:31;;;;;;;9.27;6.00;;;;;;;;;;5040685;28;20037;-78
2023/10/18 12:50:56;;;;;;;9.88;6.00;;;;;;;;;;5053696;28;20456;-78
2023/10/18 12:55:58;;;;;;;10.45;5.85;;;;;;;;;;5033383;28;20504;-79
2023/10/18 12:58:28;;;;;;;8.77;6.00;;;;;;;;;;5036647;28;20021;-80
2023/10/18 13:01:05;;;;;;;12.52;6.75;;;;;;;;;;5050527;28;20052;-80
2023/10/18 13:03:44;;;;;;;9.63;5.85;;;;;;;;;;5062704;28;20028;-80
2023/10/18 13:06:15;;;;;;;9.73;5.75;;;;;;;;;;5060090;28;20032;-79
2023/10/18 13:08:56;;;;;;;9.55;5.55;;;;;;;;;;5044223;28;20070;-79
2023/10/18 13:14:13;;;;;;;7.85;5.50;;;;;;;;;;5061356;28;20035;-79
2023/10/18 13:16:39;;;;;;;10.75;6.22;;;;;;;;;;5064608;28;20028;-79
2023/10/18 13:19:06;;;;;;;11.27;5.43;;;;;;;;;;5042826;28;20162;-79
2023/10/18 13:21:33;;;;;;;10.75;5.90;;;;;;;;;;5027397;28;20041;-79
2023/10/18 13:23:59;;;;;;;8.15;5.70;;;;;;;;;;5032300;28;20649;-80
2023/10/18 13:26:31;;;;;;;8.13;4.95;;;;;;;;;;5022476;28;20063;-79
2023/10/18 13:29:00;;;;;;;7.80;5.43;;;;;;;;;;5044343;28;20497;-79
2023/10/18 13:31:33;;;;;;;8.75;5.43;;;;;;;;;;5036610;28;20056;-79
2023/10/18 13:33:59;;;;;;;8.85;5.30;;;;;;;;;;5057865;28;20036;-79
2023/10/18 13:36:25;;;;;;;9.35;5.80;;;;;;;;;;5039843;28;20116;-79
2023/10/18 13:38:53;;;;;;;10.65;5.32;;;;;;;;;;5056635;28;20094;-79
2023/10/18 13:41:19;;;;;;;8.70;4.93;;;;;;;;;;5020741;28;20464;-80
2023/10/18 13:43:45;;;;;;;12.85;5.47;;;;;;;;;;5053852;28;20029;-79
2023/10/18 13:46:21;;;;;;;10.85;5.22;;;;;;;;;;5048493;28;20028;-79
2023/10/18 13:48:51;;;;;;;7.20;4.93;;;;;;;;;;5053004;28;20074;-81
2023/10/18 13:51:18;;;;;;;7.63;4.93;;;;;;;;;;5040896;28;20032;-81
2023/10/18 13:53:43;;;;;;;9.52;4.82;;;;;;;;;;5050149;28;20024;-81
2023/10/18 13:56:12;;;;;;;7.63;4.60;;;;;;;;;;5041934;28;20036;-80
2023/10/18 13:58:41;;;;;;;7.32;4.90;;;;;;;;;;5057765;28;20517;-80
2023/10/18 14:01:16;;;;;;;12.27;4.97;;;;;;;;;;5039037;28;20733;-80
2023/10/18 14:03:42;;;;;;;7.55;4.70;;;;;;;;;;5044421;28;20127;-81
2023/10/18 14:06:14;;;;;;;6.60;4.65;;;;;;;;;;5036569;28;20085;-80
2023/10/18 14:08:43;;;;;;;7.03;4.65;;;;;;;;;;5055299;28;20182;-80
2023/10/18 14:11:12;;;;;;;9.15;5.22;;;;;;;;;;5048191;28;20024;-80
2023/10/18 14:13:39;;;;;;;9.38;4.88;;;;;;;;;;5040275;28;20029;-81
2023/10/18 14:16:05;;;;;;;6.80;4.57;;;;;;;;;;5056404;28;20656;-81
2023/10/18 14:18:31;;;;;;;7.28;4.78;;;;;;;;;;5053559;28;20112;-81
2023/10/18 14:21:04;;;;;;;7.97;4.75;;;;;;;;;;5059674;28;20464;-81
2023/10/18 14:23:31;;;;;;;9.05;4.80;;;;;;;;;;5039303;28;20653;-81
2023/10/18 14:25:56;;;;;;;6.22;4.70;;;;;;;;;;5044563;28;20063;-80
2023/10/18 14:28:22;;;;;;;8.13;4.72;;;;;;;;;;5059707;28;20107;-80
2023/10/18 14:30:47;;;;;;;6.68;4.60;;;;;;;;;;5043052;28;20051;-81
2023/10/18 14:33:13;;;;;;;9.23;4.60;;;;;;;;;;5045315;28;20028;-81
2023/10/18 14:35:38;;;;;;;7.78;4.93;;;;;;;;;;5044931;28;20013;-81
2023/10/18 14:38:06;;;;;;;7.05;4.80;;;;;;;;;;5064187;28;20711;-81
2023/10/18 14:40:35;;;;;;;7.07;4.70;;;;;;;;;;5042704;28;20052;-81
2023/10/18 14:43:03;;;;;;;8.27;4.65;;;;;;;;;;5042710;28;20119;-81
2023/10/18 14:45:33;;;;;;;7.57;4.53;;;;;;;;;;5038704;28;20070;-81
2023/10/18 14:47:58;;;;;;;10.07;4.60;;;;;;;;;;5060564;28;20035;-81
2023/10/18 14:50:24;;;;;;;6.40;4.30;;;;;;;;;;5064505;28;20029;-82
2023/10/18 14:52:50;;;;;;;5.88;4.00;;;;;;;;;;5065317;28;20112;-81
2023/10/18 14:55:15;;;;;;;7.40;4.18;;;;;;;;;;5042158;28;20443;-81
2023/10/18 14:57:41;;;;;;;6.35;4.38;;;;;;;;;;5042130;28;20028;-81
2023/10/18 15:00:19;;;;;;;7.53;4.38;;;;;;;;;;5045171;28;20028;-81
2023/10/18 15:02:52;;;;;;;7.63;4.72;;;;;;;;;;5064881;28;20103;-81
2023/10/18 15:05:17;;;;;;;5.88;3.95;;;;;;;;;;5054981;28;20054;-81
2023/10/18 15:07:46;;;;;;;8.38;4.00;;;;;;;;;;5065095;28;20036;-81
2023/10/18 15:10:12;;;;;;;6.28;4.00;;;;;;;;;;5064709;28;20391;-80
2023/10/18 15:12:38;;;;;;;6.93;3.83;;;;;;;;;;5062931;28;20024;-77
2023/10/18 15:15:07;;;;;;;6.72;3.78;;;;;;;;;;5045231;28;20028;-78
2023/10/18 15:17:33;;;;;;;7.18;4.00;;;;;;;;;;5040292;28;20025;-78
2023/10/18 15:19:58;;;;;;;6.38;3.90;;;;;;;;;;5058780;28;20056;-78
2023/10/18 15:22:26;;;;;;;8.30;3.80;;;;;;;;;;5060531;28;20036;-80
2023/10/18 15:24:55;;;;;;;7.75;4.07;;;;;;;;;;5063165;28;20419;-80
2023/10/18 15:27:20;;;;;;;6.07;3.90;;;;;;;;;;5063733;28;20043;-79
2023/10/18 15:29:46;;;;;;;6.13;3.65;;;;;;;;;;5044956;28;20484;-79